createdAt,value
2019-01-17T00:01:23.408Z,16.33
2019-01-17T00:03:53.646Z,16.33
2019-01-17T00:06:35.951Z,16.83
2019-01-17T00:09:08.401Z,17.57
2019-01-17T00:11:38.549Z,17.33
2019-01-17T00:14:14.441Z,17.93
2019-01-17T00:16:50.441Z,17.17
2019-01-17T00:19:33.760Z,19.00
2019-01-17T00:22:15.818Z,18.53
2019-01-17T00:24:45.961Z,19.40
2019-01-17T00:27:28.285Z,19.00
2019-01-17T00:30:04.185Z,19.93
2019-01-17T00:32:46.016Z,18.70
2019-01-17T00:35:25.148Z,20.17
2019-01-17T00:37:55.353Z,19.30
2019-01-17T00:40:25.501Z,18.90
2019-01-17T00:42:58.348Z,19.40
2019-01-17T00:45:33.961Z,17.00
2019-01-17T00:48:07.045Z,16.30
2019-01-17T00:50:37.194Z,15.93
2019-01-17T00:53:23.564Z,15.50
2019-01-17T00:55:56.448Z,16.23
2019-01-17T00:58:42.337Z,15.73
2019-01-17T01:01:15.212Z,14.67
2019-01-17T01:03:45.420Z,14.40
2019-01-17T01:06:15.714Z,16.23
2019-01-17T01:08:51.933Z,15.67
2019-01-17T01:11:24.784Z,14.10
2019-01-17T01:13:55.019Z,13.23
2019-01-17T01:16:37.370Z,13.43
2019-01-17T01:19:07.566Z,14.20
2019-01-17T01:21:37.712Z,13.93
2019-01-17T01:24:23.842Z,14.27
2019-01-17T01:26:59.858Z,13.33
2019-01-17T01:29:33.021Z,13.87
2019-01-17T01:32:03.174Z,12.37
2019-01-17T01:34:38.779Z,13.17
2019-01-17T01:37:25.050Z,12.90
2019-01-17T01:40:01.069Z,13.10
2019-01-17T01:42:48.880Z,12.77
2019-01-17T01:45:24.849Z,13.23
2019-01-17T01:47:54.997Z,13.27
2019-01-17T01:50:25.204Z,13.43
2019-01-17T01:52:58.392Z,12.77
2019-01-17T01:55:26.957Z,12.17
2019-01-17T01:57:55.461Z,11.53
2019-01-17T02:00:24.024Z,10.93
2019-01-17T02:02:52.593Z,7.77
2019-01-17T02:05:21.073Z,4.80
2019-01-17T02:07:49.589Z,3.53
2019-01-17T02:10:18.217Z,3.47
2019-01-17T02:12:46.696Z,3.30
2019-01-17T02:15:15.342Z,2.83
2019-01-17T02:17:43.894Z,2.73
2019-01-17T02:20:12.597Z,2.67
2019-01-17T02:22:41.085Z,2.80
2019-01-17T02:25:09.803Z,2.67
2019-01-17T02:27:38.428Z,2.70
2019-01-17T02:30:10.209Z,3.20
2019-01-17T02:32:38.765Z,3.50
2019-01-17T02:35:07.917Z,3.87
2019-01-17T02:37:36.479Z,3.80
2019-01-17T02:40:08.397Z,3.87
2019-01-17T02:42:37.026Z,4.00
2019-01-17T02:45:08.605Z,4.27
2019-01-17T02:47:37.158Z,4.57
2019-01-17T02:50:07.901Z,4.50
2019-01-17T02:52:36.478Z,4.80
2019-01-17T02:55:07.830Z,4.50
2019-01-17T02:57:36.345Z,5.27
2019-01-17T03:00:07.926Z,5.20
2019-01-17T03:02:36.477Z,5.97
2019-01-17T03:05:05.818Z,5.40
2019-01-17T03:07:34.437Z,6.10
2019-01-17T03:10:03.169Z,6.27
2019-01-17T03:12:31.717Z,6.57
2019-01-17T03:15:00.278Z,6.70
2019-01-17T03:17:28.849Z,7.30
2019-01-17T03:19:57.437Z,7.17
2019-01-17T03:22:25.928Z,7.40
2019-01-17T03:24:54.478Z,8.30
2019-01-17T03:27:23.061Z,8.77
2019-01-17T03:29:51.550Z,8.57
2019-01-17T03:32:20.142Z,8.50
2019-01-17T03:34:48.689Z,8.30
2019-01-17T03:37:17.221Z,8.27
2019-01-17T03:39:45.711Z,7.93
2019-01-17T03:42:14.269Z,7.33
2019-01-17T03:44:42.746Z,6.90
2019-01-17T03:47:11.586Z,6.37
2019-01-17T03:49:40.133Z,4.73
2019-01-17T03:52:08.709Z,5.30
2019-01-17T03:54:37.411Z,5.33
2019-01-17T03:57:05.989Z,5.27
2019-01-17T03:59:34.544Z,5.27
2019-01-17T04:02:03.122Z,5.93
2019-01-17T04:04:31.687Z,5.63
2019-01-17T04:07:00.190Z,6.03
2019-01-17T04:09:28.685Z,5.83
2019-01-17T04:11:57.265Z,5.47
2019-01-17T04:14:25.820Z,5.93
2019-01-17T04:16:54.302Z,6.83
2019-01-17T04:19:22.803Z,6.60
2019-01-17T04:21:51.334Z,6.10
2019-01-17T04:24:19.901Z,6.47
2019-01-17T04:26:48.462Z,6.63
2019-01-17T04:29:16.968Z,6.00
2019-01-17T04:31:45.526Z,5.87
2019-01-17T04:34:14.100Z,6.00
2019-01-17T04:36:42.658Z,6.90
2019-01-17T04:39:11.773Z,6.70
2019-01-17T04:41:40.331Z,6.80
2019-01-17T04:44:08.982Z,6.47
2019-01-17T04:46:37.535Z,6.50
2019-01-17T04:49:06.111Z,7.13
2019-01-17T04:51:34.675Z,6.83
2019-01-17T04:54:03.242Z,7.77
2019-01-17T04:56:31.721Z,8.17
2019-01-17T04:59:00.225Z,8.03
2019-01-17T05:01:28.782Z,8.80
2019-01-17T05:03:57.365Z,8.83
2019-01-17T05:06:25.862Z,8.77
2019-01-17T05:08:54.503Z,9.40
2019-01-17T05:11:23.019Z,9.47
2019-01-17T05:13:51.582Z,9.20
2019-01-17T05:16:20.225Z,10.60
2019-01-17T05:18:48.720Z,10.13
2019-01-17T05:21:17.395Z,10.03
2019-01-17T05:23:45.996Z,10.33
2019-01-17T05:26:14.652Z,11.23
2019-01-17T05:28:43.240Z,11.10
2019-01-17T05:31:11.794Z,12.57
2019-01-17T05:33:40.357Z,11.53
2019-01-17T05:36:09.041Z,11.60
2019-01-17T05:38:37.533Z,11.90
2019-01-17T05:41:06.118Z,11.83
2019-01-17T05:43:34.676Z,11.63
2019-01-17T05:46:03.322Z,12.20
2019-01-17T05:48:31.811Z,13.20
2019-01-17T05:51:00.393Z,12.53
2019-01-17T05:53:28.963Z,13.03
2019-01-17T05:55:57.549Z,12.50
2019-01-17T05:58:26.118Z,12.50
2019-01-17T06:00:54.748Z,13.20
2019-01-17T06:03:23.272Z,12.90
2019-01-17T06:05:52.165Z,46.43
2019-01-17T06:08:20.656Z,30.73
2019-01-17T06:10:49.170Z,18.90
2019-01-17T06:13:17.834Z,14.83
2019-01-17T06:15:46.666Z,15.10
2019-01-17T06:18:15.183Z,14.67
2019-01-17T06:20:43.769Z,13.30
2019-01-17T06:23:12.255Z,13.57
2019-01-17T06:25:40.795Z,13.80
2019-01-17T06:28:09.411Z,13.53
2019-01-17T06:30:37.898Z,13.83
2019-01-17T06:33:06.478Z,14.33
2019-01-17T06:35:34.969Z,14.23
2019-01-17T06:38:03.693Z,14.93
2019-01-17T06:40:32.389Z,14.07
2019-01-17T06:43:00.902Z,13.30
2019-01-17T06:45:29.458Z,14.97
2019-01-17T06:47:58.109Z,13.97
2019-01-17T06:50:26.673Z,14.37
2019-01-17T06:52:55.189Z,15.17
2019-01-17T06:55:23.816Z,15.13
2019-01-17T06:57:52.479Z,16.03
2019-01-17T07:00:21.115Z,16.27
2019-01-17T07:02:49.689Z,16.03
2019-01-17T07:05:18.353Z,17.90
2019-01-17T07:07:46.992Z,17.37
2019-01-17T07:10:17.232Z,17.43
2019-01-17T07:12:46.201Z,16.90
2019-01-17T07:15:15.020Z,17.53
2019-01-17T07:17:43.538Z,18.43
2019-01-17T07:20:14.235Z,19.30
2019-01-17T07:22:42.817Z,18.50
2019-01-17T07:25:11.656Z,18.97
2019-01-17T07:27:40.310Z,19.43
2019-01-17T07:30:20.030Z,18.83
2019-01-17T07:32:48.852Z,17.97
2019-01-17T07:35:17.660Z,18.70
2019-01-17T07:37:47.431Z,19.40
2019-01-17T07:40:16.442Z,18.93
2019-01-17T07:42:45.002Z,18.77
2019-01-17T07:45:19.004Z,25.17
2019-01-17T07:47:47.725Z,28.63
2019-01-17T07:50:16.426Z,31.80
2019-01-17T07:52:45.061Z,19.47
2019-01-17T07:55:13.713Z,20.10
2019-01-17T07:57:42.201Z,19.80
2019-01-17T08:00:13.789Z,18.07
2019-01-17T08:02:42.278Z,18.27
2019-01-17T08:05:10.853Z,17.43
2019-01-17T08:07:39.481Z,19.37
2019-01-17T08:10:11.170Z,17.67
2019-01-17T08:12:39.803Z,18.97
2019-01-17T08:15:10.511Z,19.93
2019-01-17T08:17:39.090Z,19.67
2019-01-17T08:20:10.749Z,20.03
2019-01-17T08:22:39.330Z,17.63
2019-01-17T08:25:10.406Z,19.30
2019-01-17T08:27:38.954Z,18.00
2019-01-17T08:30:10.540Z,18.57
2019-01-17T08:32:39.097Z,20.13
2019-01-17T08:35:08.026Z,18.97
2019-01-17T08:37:36.613Z,19.30
2019-01-17T08:40:20.571Z,19.37
2019-01-17T08:42:49.148Z,19.13
2019-01-17T08:45:18.283Z,20.77
2019-01-17T08:47:46.908Z,20.23
2019-01-17T08:50:16.743Z,20.40
2019-01-17T08:52:45.377Z,20.57
2019-01-17T08:55:14.092Z,19.90
2019-01-17T08:57:42.655Z,21.40
2019-01-17T09:00:19.253Z,20.60
2019-01-17T09:02:47.827Z,21.17
2019-01-17T09:05:17.822Z,21.50
2019-01-17T09:07:46.317Z,20.80
2019-01-17T09:10:20.556Z,19.60
2019-01-17T09:12:49.158Z,20.97
2019-01-17T09:15:20.518Z,19.60
2019-01-17T09:17:49.006Z,21.33
2019-01-17T09:20:17.569Z,20.97
2019-01-17T09:22:46.078Z,21.30
2019-01-17T09:25:16.013Z,21.43
2019-01-17T09:27:44.677Z,21.43
2019-01-17T09:30:18.321Z,24.83
2019-01-17T09:32:47.037Z,21.63
2019-01-17T09:35:16.766Z,20.43
2019-01-17T09:37:45.419Z,19.30
2019-01-17T09:40:19.646Z,19.83
2019-01-17T09:42:48.297Z,18.37
2019-01-17T09:45:17.097Z,19.17
2019-01-17T09:47:45.743Z,18.20
2019-01-17T09:50:22.989Z,19.17
2019-01-17T09:52:51.711Z,17.27
2019-01-17T09:55:20.334Z,15.70
2019-01-17T09:57:48.981Z,16.07
2019-01-17T10:00:28.534Z,15.33
2019-01-17T10:02:58.417Z,15.80
2019-01-17T10:05:26.985Z,14.67
2019-01-17T10:07:55.560Z,14.80
2019-01-17T10:10:25.301Z,15.17
2019-01-17T10:12:54.045Z,14.90
2019-01-17T10:15:34.119Z,15.63
2019-01-17T10:18:31.278Z,15.40
2019-01-17T10:21:14.540Z,13.80
2019-01-17T10:23:57.915Z,14.57
2019-01-17T10:26:35.560Z,14.93
2019-01-17T10:29:25.217Z,14.17
2019-01-17T10:31:59.584Z,12.03
2019-01-17T10:34:37.200Z,15.10
2019-01-17T10:37:27.888Z,12.70
2019-01-17T10:40:02.464Z,13.50
2019-01-17T10:42:45.712Z,12.43
2019-01-17T10:45:29.085Z,12.00
2019-01-17T10:48:06.580Z,12.30
2019-01-17T10:50:52.612Z,12.77
2019-01-17T10:53:33.191Z,12.60
2019-01-17T10:56:07.770Z,10.77
2019-01-17T10:58:39.482Z,10.93
2019-01-17T11:01:32.145Z,9.23
2019-01-17T11:04:15.584Z,15.03
2019-01-17T11:06:58.935Z,11.97
2019-01-17T11:09:39.300Z,13.43
2019-01-17T11:12:31.429Z,10.87
2019-01-17T11:15:08.660Z,12.17
2019-01-17T11:17:43.222Z,7.93
2019-01-17T11:20:32.612Z,8.40
2019-01-17T11:23:06.620Z,10.13
2019-01-17T11:25:40.016Z,8.77
2019-01-17T11:28:26.646Z,9.30
2019-01-17T11:31:14.822Z,7.60
2019-01-17T11:33:52.097Z,10.60
2019-01-17T11:36:57.861Z,9.47
2019-01-17T11:39:44.170Z,10.93
2019-01-17T11:42:21.381Z,10.57
2019-01-17T11:45:10.976Z,10.40
2019-01-17T11:47:42.603Z,11.30
2019-01-17T11:50:30.436Z,9.87
2019-01-17T11:53:04.793Z,9.33
2019-01-17T11:55:36.359Z,11.77
2019-01-17T11:58:22.704Z,9.07
2019-01-17T12:00:54.277Z,9.30
2019-01-17T12:03:28.361Z,7.07
2019-01-17T12:05:56.870Z,6.27
2019-01-17T12:08:25.434Z,21.60
2019-01-17T12:10:53.921Z,9.77
2019-01-17T12:13:22.425Z,7.47
2019-01-17T12:15:50.989Z,11.13
2019-01-17T12:18:19.497Z,21.97
2019-01-17T12:20:48.061Z,9.87
2019-01-17T12:23:16.642Z,17.83
2019-01-17T12:25:45.209Z,11.10
2019-01-17T12:28:13.706Z,9.00
2019-01-17T12:30:42.195Z,11.03
2019-01-17T12:33:10.770Z,10.80
2019-01-17T12:35:39.260Z,13.13
2019-01-17T12:38:07.833Z,8.17
2019-01-17T12:40:36.313Z,9.40
2019-01-17T12:43:05.369Z,10.33
2019-01-17T12:45:33.937Z,10.17
2019-01-17T12:48:02.513Z,11.23
2019-01-17T12:50:31.886Z,9.30
2019-01-17T12:53:00.489Z,9.03
2019-01-17T12:55:29.120Z,11.37
2019-01-17T12:57:57.624Z,9.87
2019-01-17T13:00:26.190Z,12.33
2019-01-17T13:02:54.839Z,12.90
2019-01-17T13:05:23.401Z,8.80
2019-01-17T13:07:52.554Z,16.10
2019-01-17T13:10:21.995Z,16.80
2019-01-17T13:12:50.625Z,14.97
2019-01-17T13:15:19.256Z,13.70
2019-01-17T13:17:47.816Z,12.33
2019-01-17T13:20:16.665Z,8.93
2019-01-17T13:22:45.307Z,9.87
2019-01-17T13:25:16.900Z,9.77
2019-01-17T13:27:45.459Z,6.30
2019-01-17T13:30:16.738Z,7.40
2019-01-17T13:32:45.299Z,10.40
2019-01-17T13:35:14.013Z,7.57
2019-01-17T13:37:42.639Z,8.07
2019-01-17T13:40:16.734Z,6.77
2019-01-17T13:42:45.228Z,7.50
2019-01-17T13:45:20.957Z,6.37
2019-01-17T13:47:50.765Z,8.60
2019-01-17T13:50:19.605Z,6.37
2019-01-17T13:52:48.237Z,5.23
2019-01-17T13:55:17.544Z,4.60
2019-01-17T13:57:46.030Z,4.57
2019-01-17T14:00:25.319Z,4.33
2019-01-17T14:02:54.313Z,3.47
2019-01-17T14:05:22.876Z,4.03
2019-01-17T14:07:52.558Z,4.00
2019-01-17T14:10:21.269Z,3.70
2019-01-17T14:12:49.827Z,3.40
2019-01-17T14:15:24.558Z,4.13
2019-01-17T14:17:54.285Z,4.67
2019-01-17T14:20:22.854Z,3.77
2019-01-17T14:22:51.340Z,4.00
2019-01-17T14:25:19.854Z,4.10
2019-01-17T14:27:48.329Z,4.03
2019-01-17T14:30:26.420Z,4.07
2019-01-17T14:32:56.924Z,3.30
2019-01-17T14:35:25.477Z,4.23
2019-01-17T14:37:55.298Z,3.53
2019-01-17T14:40:23.842Z,3.60
2019-01-17T14:42:52.409Z,3.07
2019-01-17T14:45:22.037Z,2.70
2019-01-17T14:47:51.676Z,3.07
2019-01-17T14:50:28.900Z,2.30
2019-01-17T14:52:57.417Z,2.70
2019-01-17T14:55:25.961Z,2.83
2019-01-17T14:57:54.465Z,2.47
2019-01-17T15:00:28.505Z,2.20
2019-01-17T15:02:57.137Z,1.70
2019-01-17T15:05:25.861Z,2.97
2019-01-17T15:07:55.984Z,2.33
2019-01-17T15:10:30.193Z,2.17
2019-01-17T15:12:58.789Z,2.20
2019-01-17T15:15:27.420Z,1.50
2019-01-17T15:17:57.414Z,3.13
2019-01-17T15:20:25.965Z,2.93
2019-01-17T15:22:54.473Z,2.40
2019-01-17T15:25:22.961Z,2.10
2019-01-17T15:27:51.683Z,3.40
2019-01-17T15:30:24.973Z,3.30
2019-01-17T15:32:54.022Z,2.20
2019-01-17T15:35:22.554Z,1.93
2019-01-17T15:37:51.225Z,2.37
2019-01-17T15:40:22.421Z,2.07
2019-01-17T15:42:51.130Z,2.10
2019-01-17T15:45:19.848Z,3.07
2019-01-17T15:47:48.489Z,3.33
2019-01-17T15:50:18.616Z,2.33
2019-01-17T15:52:47.242Z,1.63
2019-01-17T15:55:16.584Z,2.10
2019-01-17T15:57:45.292Z,1.67
2019-01-17T16:00:16.794Z,1.57
2019-01-17T16:02:45.618Z,1.57
2019-01-17T16:05:14.938Z,2.30
2019-01-17T16:07:43.490Z,2.10
2019-01-17T16:10:14.409Z,2.43
2019-01-17T16:12:43.035Z,1.97
2019-01-17T16:15:14.256Z,7.67
2019-01-17T16:17:42.737Z,6.57
2019-01-17T16:20:13.618Z,3.00
2019-01-17T16:22:42.295Z,3.50
2019-01-17T16:25:12.821Z,2.50
2019-01-17T16:27:41.923Z,2.10
2019-01-17T16:30:16.393Z,2.53
2019-01-17T16:32:45.013Z,2.40
2019-01-17T16:35:13.598Z,2.33
2019-01-17T16:37:42.290Z,2.67
2019-01-17T16:40:12.134Z,9.33
2019-01-17T16:42:40.698Z,6.10
2019-01-17T16:45:14.560Z,10.13
2019-01-17T16:47:43.113Z,5.50
2019-01-17T16:50:17.699Z,4.47
2019-01-17T16:52:46.322Z,4.87
2019-01-17T16:55:15.365Z,6.13
2019-01-17T16:57:48.941Z,4.60
2019-01-17T17:00:20.303Z,4.40
2019-01-17T17:02:48.911Z,8.60
2019-01-17T17:05:17.670Z,9.40
2019-01-17T17:07:46.213Z,4.90
2019-01-17T17:10:15.476Z,4.50
2019-01-17T17:12:44.162Z,3.90
2019-01-17T17:15:13.467Z,3.23
2019-01-17T17:17:42.074Z,3.10
2019-01-17T17:20:16.193Z,3.97
2019-01-17T17:22:44.829Z,4.47
2019-01-17T17:25:14.457Z,4.37
2019-01-17T17:27:42.959Z,3.40
2019-01-17T17:30:19.789Z,3.17
2019-01-17T17:32:48.504Z,3.90
2019-01-17T17:35:17.058Z,5.30
2019-01-17T17:37:45.630Z,6.40
2019-01-17T17:40:22.672Z,6.03
2019-01-17T17:42:51.258Z,5.87
2019-01-17T17:45:19.883Z,6.67
2019-01-17T17:47:49.904Z,5.80
2019-01-17T17:50:20.089Z,4.70
2019-01-17T17:52:48.662Z,5.67
2019-01-17T17:55:18.150Z,5.40
2019-01-17T17:57:46.694Z,5.07
2019-01-17T18:00:25.121Z,5.47
2019-01-17T18:02:54.098Z,5.63
2019-01-17T18:05:22.992Z,5.87
2019-01-17T18:07:51.600Z,7.13
2019-01-17T18:10:20.159Z,4.90
2019-01-17T18:12:48.822Z,5.17
2019-01-17T18:15:19.296Z,5.00
2019-01-17T18:17:48.176Z,5.50
2019-01-17T18:20:17.524Z,50.20
2019-01-17T18:22:46.107Z,10.13
2019-01-17T18:25:14.744Z,4.80
2019-01-17T18:27:43.253Z,4.50
2019-01-17T18:30:27.707Z,4.83
2019-01-17T18:32:56.408Z,4.07
2019-01-17T18:35:24.956Z,4.80
2019-01-17T18:37:53.462Z,4.33
2019-01-17T18:40:22.680Z,4.23
2019-01-17T18:42:51.306Z,4.23
2019-01-17T18:45:22.764Z,3.90
2019-01-17T18:47:51.413Z,4.63
2019-01-17T18:50:28.438Z,5.50
2019-01-17T18:52:56.991Z,6.23
2019-01-17T18:55:25.493Z,5.37
2019-01-17T18:57:54.051Z,4.73
2019-01-17T19:00:26.106Z,4.80
2019-01-17T19:02:54.794Z,5.60
2019-01-17T19:05:23.441Z,5.07
2019-01-17T19:07:52.071Z,4.73
2019-01-17T19:10:21.393Z,3.93
2019-01-17T19:12:50.090Z,3.47
2019-01-17T19:15:21.219Z,4.53
2019-01-17T19:17:49.772Z,4.10
2019-01-17T19:20:20.299Z,3.80
2019-01-17T19:22:49.129Z,5.17
2019-01-17T19:25:17.874Z,4.77
2019-01-17T19:27:46.429Z,7.53
2019-01-17T19:30:17.957Z,8.10
2019-01-17T19:32:46.589Z,8.27
2019-01-17T19:35:15.308Z,7.73
2019-01-17T19:37:44.002Z,6.37
2019-01-17T19:40:15.605Z,7.37
2019-01-17T19:42:44.317Z,5.60
2019-01-17T19:45:14.557Z,5.00
2019-01-17T19:47:43.273Z,5.17
2019-01-17T19:50:20.221Z,4.57
2019-01-17T19:52:48.857Z,4.93
2019-01-17T19:55:17.569Z,4.83
2019-01-17T19:57:46.127Z,4.10
2019-01-17T20:00:17.717Z,4.10
2019-01-17T20:02:46.337Z,4.27
2019-01-17T20:05:17.556Z,4.63
2019-01-17T20:07:46.274Z,4.27
2019-01-17T20:10:17.585Z,5.13
2019-01-17T20:12:46.072Z,4.70
2019-01-17T20:15:14.789Z,4.80
2019-01-17T20:17:43.424Z,4.80
2019-01-17T20:20:17.092Z,5.17
2019-01-17T20:22:45.929Z,4.87
2019-01-17T20:25:14.921Z,4.30
2019-01-17T20:27:43.492Z,4.23
2019-01-17T20:30:20.319Z,4.33
2019-01-17T20:32:49.150Z,3.73
2019-01-17T20:35:17.877Z,4.27
2019-01-17T20:37:46.522Z,5.40
2019-01-17T20:40:20.337Z,8.87
2019-01-17T20:42:50.524Z,18.20
2019-01-17T20:45:19.090Z,9.30
2019-01-17T20:47:47.921Z,6.70
2019-01-17T20:50:22.370Z,5.10
2019-01-17T20:52:52.031Z,4.23
2019-01-17T20:55:20.663Z,4.17
2019-01-17T20:57:50.470Z,5.20
2019-01-17T21:00:33.958Z,5.40
2019-01-17T21:03:02.675Z,4.10
2019-01-17T21:05:31.233Z,5.50
2019-01-17T21:08:01.169Z,3.93
2019-01-17T21:10:29.717Z,4.53
2019-01-17T21:12:58.277Z,5.00
2019-01-17T21:15:26.850Z,7.43
2019-01-17T21:17:55.418Z,4.23
2019-01-17T21:20:23.901Z,4.67
2019-01-17T21:22:52.468Z,5.10
2019-01-17T21:25:21.398Z,4.30
2019-01-17T21:27:49.973Z,5.20
2019-01-17T21:30:23.530Z,4.43
2019-01-17T21:32:52.165Z,4.53
2019-01-17T21:35:20.648Z,4.33
2019-01-17T21:37:49.229Z,3.73
2019-01-17T21:40:25.139Z,3.97
2019-01-17T21:42:53.793Z,4.33
2019-01-17T21:45:22.824Z,4.13
2019-01-17T21:47:51.407Z,4.33
2019-01-17T21:50:25.435Z,3.77
2019-01-17T21:52:54.114Z,4.20
2019-01-17T21:55:22.671Z,4.70
2019-01-17T21:57:51.253Z,3.90
2019-01-17T22:00:22.687Z,4.30
2019-01-17T22:02:51.335Z,4.43
2019-01-17T22:05:20.034Z,4.43
2019-01-17T22:07:48.653Z,4.93
2019-01-17T22:10:18.766Z,4.47
2019-01-17T22:12:47.484Z,3.87
2019-01-17T22:15:18.760Z,5.00
2019-01-17T22:17:47.315Z,4.30
2019-01-17T22:20:16.541Z,4.67
2019-01-17T22:22:45.160Z,4.27
2019-01-17T22:25:16.001Z,3.53
2019-01-17T22:27:44.634Z,4.70
2019-01-17T22:30:18.717Z,3.90
2019-01-17T22:32:47.313Z,4.30
2019-01-17T22:35:15.957Z,4.10
2019-01-17T22:37:44.593Z,4.20
2019-01-17T22:40:15.105Z,3.20
2019-01-17T22:42:43.597Z,3.30
2019-01-17T22:45:18.323Z,5.63
2019-01-17T22:47:46.884Z,3.57
2019-01-17T22:50:17.511Z,3.30
2019-01-17T22:52:46.410Z,3.30
2019-01-17T22:55:15.058Z,3.33
2019-01-17T22:57:43.621Z,3.47
2019-01-17T23:00:34.537Z,2.93
2019-01-17T23:03:03.245Z,3.07
2019-01-17T23:05:31.821Z,2.90
2019-01-17T23:08:00.301Z,2.77
2019-01-17T23:10:28.881Z,2.73
2019-01-17T23:12:57.437Z,2.90
2019-01-17T23:15:25.929Z,2.80
2019-01-17T23:17:54.509Z,2.50
2019-01-17T23:20:23.064Z,3.60
2019-01-17T23:22:51.704Z,2.47
2019-01-17T23:25:20.182Z,2.40
2019-01-17T23:31:12.561Z,2.57
2019-01-17T23:33:41.122Z,2.63
2019-01-17T23:36:09.642Z,2.50
2019-01-17T23:38:38.131Z,2.37
2019-01-17T23:41:06.680Z,2.13
2019-01-17T23:43:35.186Z,2.63
2019-01-17T23:46:03.842Z,2.83
2019-01-17T23:48:32.422Z,2.47
2019-01-17T23:51:00.981Z,2.70
2019-01-17T23:53:29.565Z,3.23
2019-01-17T23:55:58.117Z,2.93
2019-01-17T23:58:26.698Z,2.67
